createdAt,value
2023-04-16T00:05:51.507Z,29.1
2023-04-16T00:11:42.350Z,29.1
2023-04-16T00:17:19.243Z,29
2023-04-16T00:23:11.048Z,29
2023-04-16T00:29:01.578Z,28.9
2023-04-16T00:34:38.261Z,28.9
2023-04-16T00:40:14.570Z,28.9
2023-04-16T00:46:05.844Z,28.9
2023-04-16T00:51:43.412Z,28.9
2023-04-16T00:57:19.444Z,28.9
2023-04-16T01:02:56.605Z,28.8
2023-04-16T01:08:18.753Z,28.8
2023-04-16T01:14:10.986Z,28.8
2023-04-16T01:19:47.372Z,28.8
2023-04-16T01:25:23.498Z,28.8
2023-04-16T01:30:59.890Z,28.8
2023-04-16T01:36:35.946Z,28.7
2023-04-16T01:42:27.218Z,28.7
2023-04-16T01:48:04.004Z,28.7
2023-04-16T01:53:55.212Z,28.6
2023-04-16T01:59:31.685Z,28.6
2023-04-16T02:05:25.261Z,28.6
2023-04-16T02:11:00.476Z,28.6
2023-04-16T02:16:37.043Z,28.6
2023-04-16T02:22:28.964Z,28.6
2023-04-16T02:28:19.278Z,28.5
2023-04-16T02:34:11.257Z,28.5
2023-04-16T02:40:02.725Z,28.5
2023-04-16T02:45:54.134Z,28.5
2023-04-16T02:51:46.389Z,28.4
2023-04-16T02:57:37.230Z,28.4
2023-04-16T03:03:13.955Z,28.4
2023-04-16T03:09:05.552Z,28.4
2023-04-16T03:14:57.344Z,28.4
2023-04-16T03:20:34.038Z,28.4
2023-04-16T03:26:25.773Z,28.4
2023-04-16T03:32:17.779Z,28.4
2023-04-16T03:38:09.085Z,28.4
2023-04-16T03:43:45.165Z,28.3
2023-04-16T03:49:21.837Z,28.3
2023-04-16T03:54:57.500Z,28.3
2023-04-16T04:00:49.258Z,28.3
2023-04-16T04:06:43.507Z,28.3
2023-04-16T04:12:19.676Z,28.3
2023-04-16T04:18:11.994Z,28.3
2023-04-16T04:24:13.749Z,28.2
2023-04-16T04:29:33.856Z,28.3
2023-04-16T04:35:26.209Z,28.2
2023-04-16T04:41:17.895Z,28.2
2023-04-16T04:47:11.138Z,28.2
2023-04-16T04:53:02.534Z,28.2
2023-04-16T04:58:43.617Z,28.1
2023-04-16T05:04:35.558Z,28.1
2023-04-16T05:10:27.656Z,28.1
2023-04-16T05:16:04.346Z,28.1
2023-04-16T05:21:41.095Z,28.1
2023-04-16T05:27:32.556Z,28.1
2023-04-16T05:33:26.274Z,28.1
2023-04-16T05:39:16.747Z,28
2023-04-16T05:45:08.342Z,28
2023-04-16T05:50:48.096Z,28
2023-04-16T05:56:38.849Z,28
2023-04-16T06:02:30.846Z,28
2023-04-16T06:08:09.151Z,27.9
2023-04-16T06:13:46.936Z,27.9
2023-04-16T06:19:23.361Z,27.9
2023-04-16T06:25:16.906Z,27.9
2023-04-16T06:31:19.554Z,27.9
2023-04-16T06:36:56.241Z,27.9
2023-04-16T06:42:48.326Z,27.9
2023-04-16T06:48:24.188Z,27.9
2023-04-16T06:54:00.862Z,27.9
2023-04-16T06:59:37.183Z,27.9
2023-04-16T07:05:30.676Z,36.8
2023-04-16T07:11:22.312Z,35.7
2023-04-16T07:17:14.424Z,34.3
2023-04-16T07:23:06.461Z,33.3
2023-04-16T07:28:57.250Z,32.9
2023-04-16T07:34:49.657Z,38.5
2023-04-16T07:40:11.588Z,39.2
2023-04-16T07:46:03.650Z,39.1
2023-04-16T07:52:08.097Z,39.3
2023-04-16T07:57:58.645Z,41.6
2023-04-16T08:03:36.149Z,42.4
2023-04-16T08:09:30.011Z,42.8
2023-04-16T08:15:21.374Z,42.8
2023-04-16T08:21:13.731Z,43.4
2023-04-16T08:27:17.606Z,44.5
2023-04-16T08:33:10.816Z,45.2
2023-04-16T08:39:02.349Z,45.4
2023-04-16T08:44:54.533Z,44.8
2023-04-16T08:50:31.055Z,44.6
2023-04-16T08:56:22.158Z,44.7
2023-04-16T09:02:15.635Z,45.5
2023-04-16T09:08:08.350Z,45.9
2023-04-16T09:13:59.717Z,46.3
2023-04-16T09:19:52.554Z,45.4
2023-04-16T09:25:28.546Z,45.1
2023-04-16T09:31:22.007Z,45
2023-04-16T09:37:14.743Z,45.4
2023-04-16T09:42:51.773Z,45.6
2023-04-16T09:48:32.525Z,45.5
2023-04-16T09:54:26.290Z,45.8
2023-04-16T10:00:17.943Z,46.3
2023-04-16T10:06:32.249Z,46.6
2023-04-16T10:12:23.932Z,47
2023-04-16T10:18:14.761Z,46.8
2023-04-16T10:24:07.035Z,46.4
2023-04-16T10:29:59.569Z,46.2
2023-04-16T10:35:35.969Z,46.1
2023-04-16T10:41:42.062Z,46.1
2023-04-16T10:47:36.419Z,46.2
2023-04-16T10:53:36.039Z,46.4
2023-04-16T10:59:29.513Z,46.8
2023-04-16T11:05:07.920Z,46.7
2023-04-16T11:11:07.513Z,46.8
2023-04-16T11:17:00.086Z,46.9
2023-04-16T11:23:10.879Z,48.3
2023-04-16T11:29:01.300Z,48.6
2023-04-16T11:34:52.855Z,48
2023-04-16T11:40:44.191Z,47.8
2023-04-16T11:46:45.613Z,47.6
2023-04-16T11:52:40.169Z,47.1
2023-04-16T11:58:16.939Z,46.8
2023-04-16T12:04:38.046Z,46.4
2023-04-16T12:10:30.460Z,46.1
2023-04-16T12:16:22.369Z,46
2023-04-16T12:21:57.992Z,46.3
2023-04-16T12:27:33.573Z,46.7
2023-04-16T12:33:15.603Z,47.1
2023-04-16T12:39:16.917Z,47.4
2023-04-16T12:45:08.395Z,47.1
2023-04-16T12:51:00.471Z,46.9
2023-04-16T12:56:53.101Z,46.1
2023-04-16T13:02:46.070Z,45.5
2023-04-16T13:08:40.092Z,44.9
2023-04-16T13:14:32.031Z,44.4
2023-04-16T13:20:24.565Z,43.9
2023-04-16T13:26:16.864Z,43.3
2023-04-16T13:32:11.734Z,41.9
2023-04-16T13:38:06.181Z,40.6
2023-04-16T13:43:43.250Z,39.8
2023-04-16T13:49:19.449Z,39.1
2023-04-16T13:54:56.352Z,38.6
2023-04-16T14:00:33.809Z,38.4
2023-04-16T14:06:10.854Z,38.3
2023-04-16T14:11:00.612Z,38.1
2023-04-16T14:16:22.099Z,38
2023-04-16T14:22:13.477Z,37.8
2023-04-16T14:28:04.577Z,37.7
2023-04-16T14:33:57.167Z,37.6
2023-04-16T14:39:33.786Z,37.4
2023-04-16T14:45:25.163Z,37.3
2023-04-16T18:58:10.569Z,29.1
2023-04-16T19:03:47.755Z,29.1
2023-04-16T19:09:38.527Z,29.1
2023-04-16T19:15:31.620Z,29.1
2023-04-16T19:21:08.855Z,29
2023-04-16T19:26:46.273Z,29
2023-04-16T19:32:38.421Z,28.9
2023-04-16T19:38:30.955Z,28.9
2023-04-16T19:44:21.463Z,28.9
2023-04-16T19:50:13.386Z,28.1
2023-04-16T19:56:05.121Z,26.6
2023-04-16T20:01:55.368Z,25.7
2023-04-16T20:07:47.903Z,25.1
2023-04-16T20:13:39.440Z,24.7
2023-04-16T20:19:36.488Z,24.3
2023-04-16T20:25:28.175Z,24.1
2023-04-16T20:31:19.545Z,23.9
2023-04-16T20:37:12.498Z,23.7
2023-04-16T20:43:07.383Z,23.5
2023-04-16T20:54:35.430Z,23.3
2023-04-16T21:00:28.524Z,23.2
2023-04-16T21:06:22.320Z,23.1
2023-04-16T21:12:12.734Z,23.1
2023-04-16T21:17:33.604Z,23.1
2023-04-16T21:22:54.341Z,23
2023-04-16T21:28:46.334Z,22.9
2023-04-16T21:34:22.875Z,22.9
2023-04-16T21:39:59.237Z,22.9
2023-04-16T21:45:35.513Z,22.8
2023-04-16T21:51:12.596Z,22.8
2023-04-16T21:57:05.106Z,22.8
2023-04-16T22:02:42.080Z,22.8
2023-04-16T22:08:50.220Z,22.8
2023-04-16T22:14:55.660Z,22.8
2023-04-16T22:20:51.178Z,22.7
2023-04-16T22:26:42.986Z,22.7
2023-04-16T22:32:34.790Z,22.7
2023-04-16T22:38:24.860Z,22.7
2023-04-16T22:44:17.231Z,22.7
2023-04-16T22:50:09.310Z,22.7
2023-04-16T22:55:59.319Z,22.7
2023-04-16T23:01:36.224Z,22.6
2023-04-16T23:07:29.167Z,22.7
2023-04-16T23:13:04.626Z,22.6
2023-04-16T23:18:41.272Z,22.6
2023-04-16T23:23:47.417Z,22.6
2023-04-16T23:29:22.668Z,22.6
2023-04-16T23:35:14.899Z,22.6
2023-04-16T23:41:07.079Z,22.6
2023-04-16T23:46:58.104Z,22.6
2023-04-16T23:52:19.384Z,22.6
2023-04-16T23:57:56.305Z,22.6
